Date,TemperatureHighF,TemperatureAvgF,TemperatureLowF,DewpointHighF,DewpointAvgF,DewpointLowF,HumidityHigh,HumidityAvg,HumidityLow,PressureMaxIn,PressureMinIn,WindSpeedMaxMPH,WindSpeedAvgMPH,GustSpeedMaxMPH,PrecipitationSumIn
2013-3-1,53,47,41,39,34,32,73,63,49,29.97,29.87,8,3,16,0.00
2013-3-2,49,44,39,39,35,32,83,71,53,29.95,29.86,14,5,18,0.00
2013-3-3,47,42,35,38,30,28,90,66,50,30.05,29.92,12,4,16,0.00
2013-3-4,56,43,32,40,30,23,84,61,28,30.20,30.05,10,3,18,0.00
2013-3-5,63,54,42,57,46,39,98,76,43,30.15,29.72,19,5,28,0.01
2013-3-6,60,48,42,56,34,26,86,58,42,30.09,29.72,25,9,33,0.00
2013-3-7,57,46,38,43,36,31,94,68,41,30.24,30.09,10,4,14,0.00
2013-3-8,59,47,39,40,33,27,96,61,30,30.30,30.16,14,5,17,0.00
2013-3-9,61,49,38,44,38,32,94,69,45,30.33,30.24,9,2,15,0.00
2013-3-10,65,52,41,47,42,36,98,74,37,30.30,30.22,5,1,8,0.00
2013-3-11,69,60,48,60,55,47,97,84,67,30.23,29.93,10,2,15,0.00
2013-3-12,69,64,57,64,60,51,96,86,68,29.95,29.81,14,5,25,0.04
2013-3-13,65,56,48,51,38,28,82,53,26,30.14,29.96,14,5,22,0.00
2013-3-14,56,46,39,37,27,22,86,50,31,30.33,30.11,15,5,18,0.00
2013-3-15,63,51,40,49,40,28,89,66,33,30.25,30.05,14,3,17,0.00
2013-3-16,74,63,57,54,50,44,80,63,38,30.06,29.88,16,7,23,0.00
2013-3-17,73,64,60,59,55,52,82,71,55,30.04,29.96,18,7,22,0.00
2013-3-18,66,62,59,63,58,55,96,89,73,30.09,29.87,14,2,23,0.14
2013-3-19,76,63,56,59,53,37,99,76,29,30.00,29.83,11,4,15,0.44
2013-3-20,62,55,44,42,35,22,84,49,25,30.11,29.85,10,3,14,0.00
2013-3-21,58,50,42,44,29,18,93,48,21,29.95,29.80,17,5,19,0.00
2013-3-22,53,46,38,42,31,22,72,57,46,30.11,29.96,10,3,13,0.00
2013-3-23,56,50,45,52,46,40,96,86,62,30.06,29.89,13,2,16,0.54
2013-3-24,65,54,48,65,53,46,100,97,94,29.89,29.45,15,4,21,3.62
2013-3-25,56,50,46,48,39,25,96,71,34,29.84,29.61,19,9,30,0.00
2013-3-26,51,46,37,36,30,26,72,55,42,30.20,30.00,12,6,21,0.00
2013-3-27,58,47,37,36,31,27,81,59,33,30.29,30.17,14,4,15,0.00
2013-3-28,60,48,38,38,32,27,92,58,28,30.32,30.18,13,4,16,0.00
2013-3-29,61,51,37,47,39,34,97,67,40,30.36,30.23,10,2,14,0.00
2013-3-30,70,59,50,55,49,37,94,73,31,30.26,30.09,15,4,18,0.00
2013-3-31,70,64,58,59,56,53,85,77,63,30.11,29.91,17,7,21,0.00